sensor_id;sensor_type;location;lat;lon;timestamp;P1;durP1;ratioP1;P2;durP2;ratioP2
3567;SDS011;1798;48.486;9.232;2023-03-21T00:04:19;7.70;;;3.70;;
3567;SDS011;1798;48.486;9.232;2023-03-21T00:06:47;11.77;;;3.80;;
3567;SDS011;1798;48.486;9.232;2023-03-21T00:09:14;10.20;;;3.60;;
3567;SDS011;1798;48.486;9.232;2023-03-21T00:11:45;7.72;;;3.30;;
3567;SDS011;1798;48.486;9.232;2023-03-21T00:14:13;8.70;;;3.80;;
3567;SDS011;1798;48.486;9.232;2023-03-21T00:16:42;11.10;;;4.40;;
3567;SDS011;1798;48.486;9.232;2023-03-21T00:19:14;9.45;;;4.15;;
3567;SDS011;1798;48.486;9.232;2023-03-21T00:26:54;11.38;;;4.88;;
3567;SDS011;1798;48.486;9.232;2023-03-21T00:29:21;9.70;;;4.38;;
3567;SDS011;1798;48.486;9.232;2023-03-21T00:31:48;11.32;;;5.30;;
3567;SDS011;1798;48.486;9.232;2023-03-21T00:34:21;10.43;;;5.33;;
3567;SDS011;1798;48.486;9.232;2023-03-21T00:36:49;9.30;;;4.50;;
3567;SDS011;1798;48.486;9.232;2023-03-21T00:39:20;12.23;;;5.80;;
3567;SDS011;1798;48.486;9.232;2023-03-21T00:41:47;14.15;;;5.80;;
3567;SDS011;1798;48.486;9.232;2023-03-21T00:46:57;12.52;;;5.72;;
3567;SDS011;1798;48.486;9.232;2023-03-21T00:49:27;10.35;;;5.40;;
3567;SDS011;1798;48.486;9.232;2023-03-21T00:57:03;11.73;;;5.27;;
3567;SDS011;1798;48.486;9.232;2023-03-21T00:59:30;15.07;;;6.10;;
3567;SDS011;1798;48.486;9.232;2023-03-21T01:01:58;16.05;;;6.75;;
3567;SDS011;1798;48.486;9.232;2023-03-21T01:04:35;10.35;;;4.93;;
3567;SDS011;1798;48.486;9.232;2023-03-21T01:07:02;13.82;;;5.90;;
3567;SDS011;1798;48.486;9.232;2023-03-21T01:09:29;10.43;;;5.00;;
3567;SDS011;1798;48.486;9.232;2023-03-21T01:22:16;15.00;;;5.68;;
3567;SDS011;1798;48.486;9.232;2023-03-21T01:29:56;11.43;;;4.80;;
3567;SDS011;1798;48.486;9.232;2023-03-21T01:32:23;10.63;;;3.80;;
3567;SDS011;1798;48.486;9.232;2023-03-21T01:34:54;11.27;;;5.03;;
3567;SDS011;1798;48.486;9.232;2023-03-21T01:53:02;14.07;;;5.40;;
3567;SDS011;1798;48.486;9.232;2023-03-21T01:55:30;10.85;;;4.45;;
3567;SDS011;1798;48.486;9.232;2023-03-21T01:57:57;10.82;;;4.20;;
3567;SDS011;1798;48.486;9.232;2023-03-21T02:00:25;9.93;;;4.85;;
3567;SDS011;1798;48.486;9.232;2023-03-21T02:02:53;9.70;;;4.33;;
3567;SDS011;1798;48.486;9.232;2023-03-21T02:05:25;12.43;;;5.47;;
3567;SDS011;1798;48.486;9.232;2023-03-21T02:07:55;17.13;;;5.90;;
3567;SDS011;1798;48.486;9.232;2023-03-21T02:10:23;10.13;;;5.38;;
3567;SDS011;1798;48.486;9.232;2023-03-21T02:12:54;12.43;;;5.63;;
3567;SDS011;1798;48.486;9.232;2023-03-21T02:15:33;14.90;;;6.32;;
3567;SDS011;1798;48.486;9.232;2023-03-21T02:28:21;14.20;;;5.00;;
3567;SDS011;1798;48.486;9.232;2023-03-21T02:34:09;12.38;;;5.05;;
3567;SDS011;1798;48.486;9.232;2023-03-21T02:55:21;10.13;;;5.07;;
3567;SDS011;1798;48.486;9.232;2023-03-21T02:57:50;9.23;;;4.32;;
3567;SDS011;1798;48.486;9.232;2023-03-21T03:00:19;11.70;;;4.90;;
3567;SDS011;1798;48.486;9.232;2023-03-21T03:02:58;11.70;;;4.70;;
3567;SDS011;1798;48.486;9.232;2023-03-21T03:05:26;10.18;;;4.32;;
3567;SDS011;1798;48.486;9.232;2023-03-21T03:08:00;9.55;;;4.07;;
3567;SDS011;1798;48.486;9.232;2023-03-21T03:10:45;8.87;;;4.23;;
3567;SDS011;1798;48.486;9.232;2023-03-21T03:13:32;9.70;;;4.17;;
3567;SDS011;1798;48.486;9.232;2023-03-21T03:16:12;11.00;;;4.45;;
3567;SDS011;1798;48.486;9.232;2023-03-21T03:18:46;8.80;;;4.00;;
3567;SDS011;1798;48.486;9.232;2023-03-21T03:21:19;12.38;;;4.60;;
3567;SDS011;1798;48.486;9.232;2023-03-21T03:23:54;9.67;;;4.53;;
3567;SDS011;1798;48.486;9.232;2023-03-21T03:26:29;9.57;;;4.30;;
3567;SDS011;1798;48.486;9.232;2023-03-21T03:29:00;10.10;;;4.30;;
3567;SDS011;1798;48.486;9.232;2023-03-21T03:31:30;14.27;;;4.40;;
3567;SDS011;1798;48.486;9.232;2023-03-21T03:41:50;10.05;;;4.50;;
3567;SDS011;1798;48.486;9.232;2023-03-21T03:44:22;8.60;;;4.30;;
3567;SDS011;1798;48.486;9.232;2023-03-21T03:46:54;9.25;;;4.10;;
3567;SDS011;1798;48.486;9.232;2023-03-21T03:49:24;15.30;;;5.25;;
3567;SDS011;1798;48.486;9.232;2023-03-21T03:51:54;12.98;;;4.75;;
3567;SDS011;1798;48.486;9.232;2023-03-21T03:54:24;15.48;;;4.70;;
3567;SDS011;1798;48.486;9.232;2023-03-21T03:56:57;10.38;;;4.40;;
3567;SDS011;1798;48.486;9.232;2023-03-21T03:59:32;12.25;;;4.20;;
3567;SDS011;1798;48.486;9.232;2023-03-21T04:02:00;8.85;;;3.75;;
3567;SDS011;1798;48.486;9.232;2023-03-21T04:04:29;13.38;;;4.50;;
3567;SDS011;1798;48.486;9.232;2023-03-21T04:06:56;9.25;;;4.32;;
3567;SDS011;1798;48.486;9.232;2023-03-21T04:09:24;9.27;;;4.43;;
3567;SDS011;1798;48.486;9.232;2023-03-21T04:14:26;9.02;;;4.53;;
3567;SDS011;1798;48.486;9.232;2023-03-21T04:16:52;10.10;;;4.50;;
3567;SDS011;1798;48.486;9.232;2023-03-21T04:19:19;10.68;;;4.25;;
3567;SDS011;1798;48.486;9.232;2023-03-21T04:21:52;8.88;;;4.40;;
3567;SDS011;1798;48.486;9.232;2023-03-21T04:24:24;15.43;;;4.80;;
3567;SDS011;1798;48.486;9.232;2023-03-21T04:26:57;8.50;;;4.35;;
3567;SDS011;1798;48.486;9.232;2023-03-21T04:31:55;8.02;;;4.10;;
3567;SDS011;1798;48.486;9.232;2023-03-21T04:34:22;13.82;;;4.63;;
3567;SDS011;1798;48.486;9.232;2023-03-21T04:36:52;9.85;;;4.30;;
3567;SDS011;1798;48.486;9.232;2023-03-21T04:39:28;11.33;;;3.93;;
3567;SDS011;1798;48.486;9.232;2023-03-21T04:42:02;10.02;;;4.00;;
3567;SDS011;1798;48.486;9.232;2023-03-21T04:49:36;8.23;;;4.20;;
3567;SDS011;1798;48.486;9.232;2023-03-21T04:52:03;10.02;;;3.40;;
3567;SDS011;1798;48.486;9.232;2023-03-21T04:54:34;9.50;;;3.90;;
3567;SDS011;1798;48.486;9.232;2023-03-21T04:57:05;11.95;;;4.60;;
3567;SDS011;1798;48.486;9.232;2023-03-21T04:59:30;7.30;;;3.67;;
3567;SDS011;1798;48.486;9.232;2023-03-21T05:04:32;9.05;;;4.43;;
3567;SDS011;1798;48.486;9.232;2023-03-21T05:06:58;10.40;;;3.80;;
3567;SDS011;1798;48.486;9.232;2023-03-21T05:09:27;8.60;;;3.70;;
3567;SDS011;1798;48.486;9.232;2023-03-21T05:11:54;11.45;;;4.13;;
3567;SDS011;1798;48.486;9.232;2023-03-21T05:14:22;8.80;;;3.90;;
3567;SDS011;1798;48.486;9.232;2023-03-21T05:16:50;12.27;;;3.60;;
3567;SDS011;1798;48.486;9.232;2023-03-21T05:19:43;9.52;;;4.28;;
3567;SDS011;1798;48.486;9.232;2023-03-21T05:22:10;10.30;;;4.37;;
3567;SDS011;1798;48.486;9.232;2023-03-21T05:24:43;7.93;;;3.80;;
3567;SDS011;1798;48.486;9.232;2023-03-21T05:29:38;10.20;;;4.05;;
3567;SDS011;1798;48.486;9.232;2023-03-21T05:32:05;7.55;;;3.70;;
3567;SDS011;1798;48.486;9.232;2023-03-21T05:34:31;10.20;;;3.75;;
3567;SDS011;1798;48.486;9.232;2023-03-21T05:37:00;9.00;;;3.88;;
3567;SDS011;1798;48.486;9.232;2023-03-21T05:39:34;11.70;;;4.00;;
3567;SDS011;1798;48.486;9.232;2023-03-21T05:52:32;15.95;;;4.82;;
3567;SDS011;1798;48.486;9.232;2023-03-21T05:54:59;10.50;;;4.10;;
3567;SDS011;1798;48.486;9.232;2023-03-21T05:57:26;8.10;;;3.60;;
3567;SDS011;1798;48.486;9.232;2023-03-21T06:10:14;9.60;;;4.30;;
3567;SDS011;1798;48.486;9.232;2023-03-21T06:12:41;10.20;;;4.10;;
3567;SDS011;1798;48.486;9.232;2023-03-21T06:15:08;10.70;;;4.00;;
3567;SDS011;1798;48.486;9.232;2023-03-21T06:17:40;10.27;;;4.88;;
3567;SDS011;1798;48.486;9.232;2023-03-21T06:20:08;16.00;;;4.90;;
3567;SDS011;1798;48.486;9.232;2023-03-21T06:22:39;12.80;;;5.00;;
3567;SDS011;1798;48.486;9.232;2023-03-21T06:25:07;8.98;;;4.40;;
3567;SDS011;1798;48.486;9.232;2023-03-21T06:27:39;8.63;;;4.82;;
3567;SDS011;1798;48.486;9.232;2023-03-21T06:38:00;10.23;;;4.50;;
3567;SDS011;1798;48.486;9.232;2023-03-21T06:40:27;16.30;;;5.20;;
3567;SDS011;1798;48.486;9.232;2023-03-21T06:45:33;12.43;;;4.70;;
3567;SDS011;1798;48.486;9.232;2023-03-21T06:48:00;11.48;;;4.82;;
3567;SDS011;1798;48.486;9.232;2023-03-21T06:50:27;16.93;;;5.07;;
3567;SDS011;1798;48.486;9.232;2023-03-21T07:00:40;17.35;;;6.90;;
3567;SDS011;1798;48.486;9.232;2023-03-21T07:03:07;15.95;;;7.43;;
3567;SDS011;1798;48.486;9.232;2023-03-21T07:05:37;17.63;;;7.78;;
3567;SDS011;1798;48.486;9.232;2023-03-21T07:08:06;18.40;;;7.35;;
3567;SDS011;1798;48.486;9.232;2023-03-21T07:13:08;11.23;;;7.18;;
3567;SDS011;1798;48.486;9.232;2023-03-21T07:15:35;12.60;;;7.13;;
3567;SDS011;1798;48.486;9.232;2023-03-21T07:18:08;16.85;;;6.97;;
3567;SDS011;1798;48.486;9.232;2023-03-21T07:25:28;27.10;;;7.82;;
3567;SDS011;1798;48.486;9.232;2023-03-21T07:27:55;16.65;;;7.38;;
3567;SDS011;1798;48.486;9.232;2023-03-21T07:30:25;25.27;;;8.10;;
3567;SDS011;1798;48.486;9.232;2023-03-21T07:32:52;22.38;;;7.68;;
3567;SDS011;1798;48.486;9.232;2023-03-21T07:35:23;29.08;;;7.05;;
3567;SDS011;1798;48.486;9.232;2023-03-21T07:53:32;17.00;;;5.30;;
3567;SDS011;1798;48.486;9.232;2023-03-21T07:56:00;10.15;;;4.00;;
3567;SDS011;1798;48.486;9.232;2023-03-21T07:58:30;9.13;;;4.22;;
3567;SDS011;1798;48.486;9.232;2023-03-21T08:06:09;26.55;;;7.13;;
3567;SDS011;1798;48.486;9.232;2023-03-21T08:08:38;23.70;;;7.67;;
3567;SDS011;1798;48.486;9.232;2023-03-21T08:11:05;18.00;;;5.93;;
3567;SDS011;1798;48.486;9.232;2023-03-21T08:24:19;17.90;;;5.20;;
3567;SDS011;1798;48.486;9.232;2023-03-21T08:26:46;9.65;;;4.80;;
3567;SDS011;1798;48.486;9.232;2023-03-21T08:29:13;11.15;;;4.93;;
3567;SDS011;1798;48.486;9.232;2023-03-21T08:34:12;14.20;;;6.10;;
3567;SDS011;1798;48.486;9.232;2023-03-21T08:36:39;9.38;;;3.92;;
3567;SDS011;1798;48.486;9.232;2023-03-21T08:39:06;13.17;;;4.40;;
3567;SDS011;1798;48.486;9.232;2023-03-21T08:41:36;9.00;;;3.80;;
3567;SDS011;1798;48.486;9.232;2023-03-21T08:44:04;7.97;;;3.57;;
3567;SDS011;1798;48.486;9.232;2023-03-21T08:51:54;10.73;;;5.50;;
3567;SDS011;1798;48.486;9.232;2023-03-21T08:54:21;9.50;;;4.50;;
3567;SDS011;1798;48.486;9.232;2023-03-21T08:59:27;14.40;;;4.70;;
3567;SDS011;1798;48.486;9.232;2023-03-21T09:01:54;8.63;;;4.05;;
3567;SDS011;1798;48.486;9.232;2023-03-21T09:14:44;8.13;;;4.40;;
3567;SDS011;1798;48.486;9.232;2023-03-21T09:17:11;10.65;;;4.90;;
3567;SDS011;1798;48.486;9.232;2023-03-21T09:19:41;10.00;;;4.40;;
3567;SDS011;1798;48.486;9.232;2023-03-21T09:22:08;13.90;;;4.38;;
3567;SDS011;1798;48.486;9.232;2023-03-21T09:24:41;12.15;;;4.40;;
3567;SDS011;1798;48.486;9.232;2023-03-21T09:27:14;8.70;;;4.07;;
3567;SDS011;1798;48.486;9.232;2023-03-21T09:29:48;14.20;;;5.43;;
3567;SDS011;1798;48.486;9.232;2023-03-21T09:32:19;11.10;;;5.40;;
3567;SDS011;1798;48.486;9.232;2023-03-21T09:34:47;8.98;;;4.35;;
3567;SDS011;1798;48.486;9.232;2023-03-21T09:45:06;16.90;;;6.45;;
3567;SDS011;1798;48.486;9.232;2023-03-21T09:47:41;9.88;;;4.40;;
3567;SDS011;1798;48.486;9.232;2023-03-21T09:50:18;11.40;;;4.70;;
3567;SDS011;1798;48.486;9.232;2023-03-21T09:52:52;9.10;;;3.90;;
3567;SDS011;1798;48.486;9.232;2023-03-21T10:27:24;9.77;;;4.68;;
3567;SDS011;1798;48.486;9.232;2023-03-21T10:29:51;9.60;;;4.22;;
3567;SDS011;1798;48.486;9.232;2023-03-21T10:39:54;11.82;;;4.50;;
3567;SDS011;1798;48.486;9.232;2023-03-21T10:42:22;8.88;;;4.68;;
3567;SDS011;1798;48.486;9.232;2023-03-21T10:44:59;9.77;;;5.30;;
3567;SDS011;1798;48.486;9.232;2023-03-21T10:57:53;10.50;;;5.18;;
3567;SDS011;1798;48.486;9.232;2023-03-21T11:00:23;8.20;;;4.40;;
3567;SDS011;1798;48.486;9.232;2023-03-21T11:13:18;19.05;;;5.82;;
3567;SDS011;1798;48.486;9.232;2023-03-21T11:15:51;11.20;;;4.53;;
3567;SDS011;1798;48.486;9.232;2023-03-21T11:18:19;9.20;;;5.20;;
3567;SDS011;1798;48.486;9.232;2023-03-21T11:20:49;14.00;;;4.60;;
3567;SDS011;1798;48.486;9.232;2023-03-21T11:23:17;7.90;;;4.20;;
3567;SDS011;1798;48.486;9.232;2023-03-21T11:25:51;9.80;;;5.07;;
3567;SDS011;1798;48.486;9.232;2023-03-21T11:28:21;11.07;;;5.20;;
3567;SDS011;1798;48.486;9.232;2023-03-21T11:30:57;14.85;;;5.30;;
3567;SDS011;1798;48.486;9.232;2023-03-21T11:38:37;11.00;;;5.20;;
3567;SDS011;1798;48.486;9.232;2023-03-21T11:41:05;8.90;;;4.30;;
3567;SDS011;1798;48.486;9.232;2023-03-21T11:43:40;11.40;;;5.57;;
3567;SDS011;1798;48.486;9.232;2023-03-21T11:46:21;8.38;;;4.72;;
3567;SDS011;1798;48.486;9.232;2023-03-21T11:48:49;9.82;;;4.68;;
3567;SDS011;1798;48.486;9.232;2023-03-21T11:51:35;10.13;;;4.77;;
3567;SDS011;1798;48.486;9.232;2023-03-21T11:54:10;12.48;;;5.45;;
3567;SDS011;1798;48.486;9.232;2023-03-21T11:56:41;12.07;;;5.20;;
3567;SDS011;1798;48.486;9.232;2023-03-21T11:59:16;8.38;;;4.68;;
3567;SDS011;1798;48.486;9.232;2023-03-21T12:01:54;11.10;;;5.20;;
3567;SDS011;1798;48.486;9.232;2023-03-21T12:04:39;7.97;;;3.92;;
3567;SDS011;1798;48.486;9.232;2023-03-21T12:07:26;9.70;;;4.70;;
3567;SDS011;1798;48.486;9.232;2023-03-21T12:10:04;8.90;;;4.55;;
3567;SDS011;1798;48.486;9.232;2023-03-21T12:30:52;11.50;;;4.90;;
3567;SDS011;1798;48.486;9.232;2023-03-21T12:33:24;10.15;;;5.05;;
3567;SDS011;1798;48.486;9.232;2023-03-21T12:36:01;11.02;;;4.75;;
3567;SDS011;1798;48.486;9.232;2023-03-21T12:38:36;12.35;;;5.20;;
3567;SDS011;1798;48.486;9.232;2023-03-21T12:41:11;12.32;;;4.85;;
3567;SDS011;1798;48.486;9.232;2023-03-21T12:43:50;10.60;;;4.93;;
3567;SDS011;1798;48.486;9.232;2023-03-21T12:46:28;9.77;;;4.83;;
3567;SDS011;1798;48.486;9.232;2023-03-21T12:48:59;9.50;;;4.80;;
3567;SDS011;1798;48.486;9.232;2023-03-21T12:51:28;12.05;;;5.18;;
3567;SDS011;1798;48.486;9.232;2023-03-21T12:54:02;12.52;;;4.90;;
3567;SDS011;1798;48.486;9.232;2023-03-21T12:56:34;13.27;;;5.95;;
3567;SDS011;1798;48.486;9.232;2023-03-21T12:59:12;19.52;;;6.45;;
3567;SDS011;1798;48.486;9.232;2023-03-21T13:01:55;11.40;;;5.47;;
3567;SDS011;1798;48.486;9.232;2023-03-21T13:06:55;14.85;;;6.10;;
3567;SDS011;1798;48.486;9.232;2023-03-21T13:09:27;12.60;;;5.80;;
3567;SDS011;1798;48.486;9.232;2023-03-21T13:11:56;12.43;;;6.00;;
3567;SDS011;1798;48.486;9.232;2023-03-21T13:14:29;12.57;;;6.10;;
3567;SDS011;1798;48.486;9.232;2023-03-21T13:17:00;13.50;;;6.57;;
3567;SDS011;1798;48.486;9.232;2023-03-21T13:19:29;11.47;;;6.17;;
3567;SDS011;1798;48.486;9.232;2023-03-21T13:22:02;12.90;;;6.50;;
3567;SDS011;1798;48.486;9.232;2023-03-21T13:24:37;12.07;;;6.40;;
3567;SDS011;1798;48.486;9.232;2023-03-21T13:27:14;10.70;;;5.82;;
3567;SDS011;1798;48.486;9.232;2023-03-21T13:29:48;13.20;;;5.55;;
3567;SDS011;1798;48.486;9.232;2023-03-21T13:32:24;14.02;;;6.80;;
3567;SDS011;1798;48.486;9.232;2023-03-21T13:34:55;13.50;;;5.93;;
3567;SDS011;1798;48.486;9.232;2023-03-21T13:37:26;12.90;;;5.40;;
3567;SDS011;1798;48.486;9.232;2023-03-21T13:42:24;11.37;;;6.60;;
3567;SDS011;1798;48.486;9.232;2023-03-21T13:44:56;12.30;;;5.80;;
3567;SDS011;1798;48.486;9.232;2023-03-21T13:55:59;15.20;;;5.77;;
3567;SDS011;1798;48.486;9.232;2023-03-21T14:09:29;14.63;;;6.53;;
3567;SDS011;1798;48.486;9.232;2023-03-21T14:11:59;10.70;;;5.70;;
3567;SDS011;1798;48.486;9.232;2023-03-21T14:14:29;13.75;;;6.78;;
3567;SDS011;1798;48.486;9.232;2023-03-21T14:16:59;9.80;;;5.20;;
3567;SDS011;1798;48.486;9.232;2023-03-21T14:19:29;10.20;;;6.00;;
3567;SDS011;1798;48.486;9.232;2023-03-21T14:21:58;11.67;;;5.60;;
3567;SDS011;1798;48.486;9.232;2023-03-21T14:30:00;12.30;;;5.10;;
3567;SDS011;1798;48.486;9.232;2023-03-21T14:32:28;14.43;;;5.60;;
3567;SDS011;1798;48.486;9.232;2023-03-21T14:34:59;9.82;;;5.47;;
3567;SDS011;1798;48.486;9.232;2023-03-21T14:37:27;14.30;;;5.32;;
3567;SDS011;1798;48.486;9.232;2023-03-21T14:42:34;8.90;;;4.57;;
3567;SDS011;1798;48.486;9.232;2023-03-21T14:45:13;10.23;;;4.95;;
3567;SDS011;1798;48.486;9.232;2023-03-21T14:47:56;12.55;;;4.28;;
3567;SDS011;1798;48.486;9.232;2023-03-21T14:50:32;10.60;;;5.00;;
3567;SDS011;1798;48.486;9.232;2023-03-21T14:53:02;9.77;;;4.60;;
3567;SDS011;1798;48.486;9.232;2023-03-21T14:55:31;11.30;;;4.68;;
3567;SDS011;1798;48.486;9.232;2023-03-21T14:58:02;9.70;;;4.15;;
3567;SDS011;1798;48.486;9.232;2023-03-21T15:00:38;9.10;;;4.47;;
3567;SDS011;1798;48.486;9.232;2023-03-21T15:05:40;8.57;;;4.53;;
3567;SDS011;1798;48.486;9.232;2023-03-21T15:08:11;10.15;;;3.92;;
3567;SDS011;1798;48.486;9.232;2023-03-21T15:10:53;10.02;;;4.35;;
3567;SDS011;1798;48.486;9.232;2023-03-21T15:13:21;10.18;;;4.85;;
3567;SDS011;1798;48.486;9.232;2023-03-21T15:15:58;8.15;;;4.25;;
3567;SDS011;1798;48.486;9.232;2023-03-21T15:18:27;9.07;;;4.30;;
3567;SDS011;1798;48.486;9.232;2023-03-21T15:20:56;12.30;;;4.60;;
3567;SDS011;1798;48.486;9.232;2023-03-21T15:25:55;10.82;;;4.40;;
3567;SDS011;1798;48.486;9.232;2023-03-21T15:28:23;10.70;;;4.50;;
3567;SDS011;1798;48.486;9.232;2023-03-21T15:30:51;8.70;;;4.32;;
3567;SDS011;1798;48.486;9.232;2023-03-21T15:36:00;8.88;;;4.82;;
3567;SDS011;1798;48.486;9.232;2023-03-21T15:38:36;10.23;;;4.47;;
3567;SDS011;1798;48.486;9.232;2023-03-21T15:41:12;11.82;;;4.20;;
3567;SDS011;1798;48.486;9.232;2023-03-21T15:43:45;10.45;;;4.35;;
3567;SDS011;1798;48.486;9.232;2023-03-21T15:46:31;8.45;;;4.03;;
3567;SDS011;1798;48.486;9.232;2023-03-21T15:51:34;9.90;;;4.82;;
3567;SDS011;1798;48.486;9.232;2023-03-21T15:54:02;9.43;;;4.20;;
3567;SDS011;1798;48.486;9.232;2023-03-21T15:56:37;11.25;;;4.10;;
3567;SDS011;1798;48.486;9.232;2023-03-21T15:59:11;8.82;;;3.75;;
3567;SDS011;1798;48.486;9.232;2023-03-21T16:01:47;11.30;;;4.60;;
3567;SDS011;1798;48.486;9.232;2023-03-21T16:04:15;8.52;;;4.28;;
3567;SDS011;1798;48.486;9.232;2023-03-21T16:06:55;8.02;;;3.88;;
3567;SDS011;1798;48.486;9.232;2023-03-21T16:09:24;9.95;;;3.63;;
3567;SDS011;1798;48.486;9.232;2023-03-21T16:11:53;8.50;;;4.03;;
3567;SDS011;1798;48.486;9.232;2023-03-21T16:14:24;10.63;;;4.15;;
3567;SDS011;1798;48.486;9.232;2023-03-21T16:19:35;8.40;;;3.88;;
3567;SDS011;1798;48.486;9.232;2023-03-21T16:22:09;9.05;;;4.07;;
3567;SDS011;1798;48.486;9.232;2023-03-21T16:32:23;7.38;;;3.92;;
3567;SDS011;1798;48.486;9.232;2023-03-21T16:34:53;16.10;;;4.25;;
3567;SDS011;1798;48.486;9.232;2023-03-21T16:37:28;7.05;;;3.67;;
3567;SDS011;1798;48.486;9.232;2023-03-21T16:47:42;7.68;;;3.80;;
3567;SDS011;1798;48.486;9.232;2023-03-21T16:50:17;8.27;;;3.88;;
3567;SDS011;1798;48.486;9.232;2023-03-21T16:52:48;9.65;;;3.63;;
3567;SDS011;1798;48.486;9.232;2023-03-21T16:55:15;14.18;;;3.60;;
3567;SDS011;1798;48.486;9.232;2023-03-21T16:57:43;8.07;;;3.70;;
3567;SDS011;1798;48.486;9.232;2023-03-21T17:00:11;8.63;;;3.60;;
3567;SDS011;1798;48.486;9.232;2023-03-21T17:02:44;10.27;;;4.15;;
3567;SDS011;1798;48.486;9.232;2023-03-21T17:05:10;7.60;;;3.40;;
3567;SDS011;1798;48.486;9.232;2023-03-21T17:07:37;9.10;;;3.90;;
3567;SDS011;1798;48.486;9.232;2023-03-21T17:10:13;7.70;;;4.00;;
3567;SDS011;1798;48.486;9.232;2023-03-21T17:12:42;21.80;;;3.90;;
3567;SDS011;1798;48.486;9.232;2023-03-21T17:15:10;9.23;;;3.72;;
3567;SDS011;1798;48.486;9.232;2023-03-21T17:17:45;9.20;;;3.60;;
3567;SDS011;1798;48.486;9.232;2023-03-21T17:20:18;8.60;;;3.55;;
3567;SDS011;1798;48.486;9.232;2023-03-21T17:22:47;8.57;;;4.20;;
3567;SDS011;1798;48.486;9.232;2023-03-21T17:43:13;8.10;;;3.80;;
3567;SDS011;1798;48.486;9.232;2023-03-21T17:45:40;9.55;;;3.83;;
3567;SDS011;1798;48.486;9.232;2023-03-21T17:48:07;8.00;;;3.88;;
3567;SDS011;1798;48.486;9.232;2023-03-21T17:50:39;14.30;;;3.92;;
3567;SDS011;1798;48.486;9.232;2023-03-21T17:53:11;7.87;;;3.33;;
3567;SDS011;1798;48.486;9.232;2023-03-21T17:55:44;14.82;;;3.55;;
3567;SDS011;1798;48.486;9.232;2023-03-21T17:58:16;9.30;;;4.20;;
3567;SDS011;1798;48.486;9.232;2023-03-21T18:00:43;11.77;;;3.63;;
3567;SDS011;1798;48.486;9.232;2023-03-21T18:03:12;12.55;;;4.10;;
3567;SDS011;1798;48.486;9.232;2023-03-21T18:05:39;13.27;;;4.10;;
3567;SDS011;1798;48.486;9.232;2023-03-21T18:23:43;11.48;;;3.90;;
3567;SDS011;1798;48.486;9.232;2023-03-21T18:26:11;7.72;;;3.38;;
3567;SDS011;1798;48.486;9.232;2023-03-21T18:36:25;12.75;;;4.10;;
3567;SDS011;1798;48.486;9.232;2023-03-21T18:38:54;8.73;;;3.40;;
3567;SDS011;1798;48.486;9.232;2023-03-21T18:41:20;7.82;;;3.60;;
3567;SDS011;1798;48.486;9.232;2023-03-21T18:43:47;9.70;;;3.60;;
3567;SDS011;1798;48.486;9.232;2023-03-21T18:46:18;8.57;;;4.05;;
3567;SDS011;1798;48.486;9.232;2023-03-21T18:51:19;7.50;;;3.55;;
3567;SDS011;1798;48.486;9.232;2023-03-21T18:53:46;9.35;;;3.70;;
3567;SDS011;1798;48.486;9.232;2023-03-21T18:56:20;15.33;;;4.30;;
3567;SDS011;1798;48.486;9.232;2023-03-21T18:58:46;10.57;;;3.63;;
3567;SDS011;1798;48.486;9.232;2023-03-21T19:01:13;12.27;;;4.03;;
3567;SDS011;1798;48.486;9.232;2023-03-21T19:03:40;17.42;;;4.25;;
3567;SDS011;1798;48.486;9.232;2023-03-21T19:06:10;7.73;;;3.70;;
3567;SDS011;1798;48.486;9.232;2023-03-21T19:08:42;9.30;;;4.30;;
3567;SDS011;1798;48.486;9.232;2023-03-21T19:11:11;9.37;;;3.70;;
3567;SDS011;1798;48.486;9.232;2023-03-21T19:13:39;12.32;;;4.60;;
3567;SDS011;1798;48.486;9.232;2023-03-21T19:26:30;11.63;;;4.70;;
3567;SDS011;1798;48.486;9.232;2023-03-21T19:28:58;15.98;;;5.30;;
3567;SDS011;1798;48.486;9.232;2023-03-21T19:31:29;13.88;;;4.40;;
3567;SDS011;1798;48.486;9.232;2023-03-21T19:36:29;14.33;;;5.33;;
3567;SDS011;1798;48.486;9.232;2023-03-21T19:38:55;18.42;;;5.30;;
3567;SDS011;1798;48.486;9.232;2023-03-21T19:41:22;12.52;;;5.40;;
3567;SDS011;1798;48.486;9.232;2023-03-21T19:44:13;11.90;;;5.77;;
3567;SDS011;1798;48.486;9.232;2023-03-21T19:46:40;18.00;;;6.38;;
3567;SDS011;1798;48.486;9.232;2023-03-21T19:49:08;8.13;;;4.32;;
3567;SDS011;1798;48.486;9.232;2023-03-21T19:51:35;15.32;;;5.93;;
3567;SDS011;1798;48.486;9.232;2023-03-21T19:59:37;9.60;;;4.20;;
3567;SDS011;1798;48.486;9.232;2023-03-21T20:02:04;12.00;;;5.00;;
3567;SDS011;1798;48.486;9.232;2023-03-21T20:04:32;14.90;;;6.90;;
3567;SDS011;1798;48.486;9.232;2023-03-21T20:07:05;12.80;;;6.00;;
3567;SDS011;1798;48.486;9.232;2023-03-21T20:09:36;11.70;;;5.40;;
3567;SDS011;1798;48.486;9.232;2023-03-21T20:12:03;10.18;;;5.00;;
3567;SDS011;1798;48.486;9.232;2023-03-21T20:19:43;19.00;;;6.57;;
3567;SDS011;1798;48.486;9.232;2023-03-21T20:22:10;15.05;;;5.65;;
3567;SDS011;1798;48.486;9.232;2023-03-21T20:24:40;13.82;;;6.05;;
3567;SDS011;1798;48.486;9.232;2023-03-21T20:27:16;18.70;;;8.02;;
3567;SDS011;1798;48.486;9.232;2023-03-21T20:40:03;10.23;;;5.30;;
3567;SDS011;1798;48.486;9.232;2023-03-21T20:42:33;13.45;;;5.47;;
3567;SDS011;1798;48.486;9.232;2023-03-21T20:45:05;10.00;;;4.75;;
3567;SDS011;1798;48.486;9.232;2023-03-21T20:47:37;9.40;;;4.77;;
3567;SDS011;1798;48.486;9.232;2023-03-21T20:50:11;13.45;;;4.95;;
3567;SDS011;1798;48.486;9.232;2023-03-21T20:52:40;13.90;;;5.73;;
3567;SDS011;1798;48.486;9.232;2023-03-21T20:55:10;16.75;;;5.75;;
3567;SDS011;1798;48.486;9.232;2023-03-21T20:57:39;11.18;;;5.43;;
3567;SDS011;1798;48.486;9.232;2023-03-21T21:00:07;14.48;;;5.80;;
3567;SDS011;1798;48.486;9.232;2023-03-21T21:02:41;11.82;;;5.75;;
3567;SDS011;1798;48.486;9.232;2023-03-21T21:05:12;15.50;;;5.72;;
3567;SDS011;1798;48.486;9.232;2023-03-21T21:07:44;12.77;;;5.70;;
3567;SDS011;1798;48.486;9.232;2023-03-21T21:10:12;18.77;;;9.95;;
3567;SDS011;1798;48.486;9.232;2023-03-21T21:12:40;11.48;;;6.03;;
3567;SDS011;1798;48.486;9.232;2023-03-21T21:15:09;12.63;;;6.53;;
3567;SDS011;1798;48.486;9.232;2023-03-21T21:17:38;20.85;;;9.65;;
3567;SDS011;1798;48.486;9.232;2023-03-21T21:20:06;18.17;;;6.90;;
3567;SDS011;1798;48.486;9.232;2023-03-21T21:25:12;23.50;;;7.78;;
3567;SDS011;1798;48.486;9.232;2023-03-21T21:27:39;17.75;;;7.65;;
3567;SDS011;1798;48.486;9.232;2023-03-21T21:30:10;19.13;;;9.77;;
3567;SDS011;1798;48.486;9.232;2023-03-21T21:32:38;24.05;;;12.30;;
3567;SDS011;1798;48.486;9.232;2023-03-21T21:35:08;23.83;;;8.05;;
3567;SDS011;1798;48.486;9.232;2023-03-21T21:37:38;22.50;;;9.30;;
3567;SDS011;1798;48.486;9.232;2023-03-21T21:40:06;14.00;;;6.22;;
3567;SDS011;1798;48.486;9.232;2023-03-21T21:42:41;19.45;;;8.63;;
3567;SDS011;1798;48.486;9.232;2023-03-21T21:45:09;12.20;;;5.40;;
3567;SDS011;1798;48.486;9.232;2023-03-21T21:47:39;11.57;;;5.80;;
3567;SDS011;1798;48.486;9.232;2023-03-21T21:50:09;10.60;;;5.38;;
3567;SDS011;1798;48.486;9.232;2023-03-21T21:52:39;13.70;;;6.63;;
3567;SDS011;1798;48.486;9.232;2023-03-21T21:55:16;14.90;;;6.60;;
3567;SDS011;1798;48.486;9.232;2023-03-21T21:57:49;12.55;;;6.20;;
3567;SDS011;1798;48.486;9.232;2023-03-21T22:00:17;13.80;;;6.55;;
3567;SDS011;1798;48.486;9.232;2023-03-21T22:02:45;17.45;;;8.80;;
3567;SDS011;1798;48.486;9.232;2023-03-21T22:05:12;13.70;;;7.60;;
3567;SDS011;1798;48.486;9.232;2023-03-21T22:07:43;14.93;;;7.90;;
3567;SDS011;1798;48.486;9.232;2023-03-21T22:10:14;19.63;;;9.10;;
3567;SDS011;1798;48.486;9.232;2023-03-21T22:12:45;18.00;;;8.20;;
3567;SDS011;1798;48.486;9.232;2023-03-21T22:15:18;19.70;;;7.13;;
3567;SDS011;1798;48.486;9.232;2023-03-21T22:17:48;14.57;;;6.80;;
3567;SDS011;1798;48.486;9.232;2023-03-21T22:20:18;17.48;;;7.47;;
3567;SDS011;1798;48.486;9.232;2023-03-21T22:22:46;15.73;;;7.78;;
3567;SDS011;1798;48.486;9.232;2023-03-21T22:25:14;20.10;;;7.15;;
3567;SDS011;1798;48.486;9.232;2023-03-21T22:27:44;14.95;;;7.45;;
3567;SDS011;1798;48.486;9.232;2023-03-21T22:30:12;27.17;;;9.23;;
3567;SDS011;1798;48.486;9.232;2023-03-21T22:32:43;19.08;;;8.30;;
3567;SDS011;1798;48.486;9.232;2023-03-21T22:35:17;14.40;;;7.47;;
3567;SDS011;1798;48.486;9.232;2023-03-21T22:37:44;30.13;;;7.93;;
3567;SDS011;1798;48.486;9.232;2023-03-21T22:40:12;16.35;;;8.02;;